Time;durP1;ratioP1;P1;durP2;ratioP2;P2;SDS_P1;SDS_P2;PMS_P1;PMS_P2;Temp;Humidity;BMP_temperature;BMP_pressure;BME280_temperature;BME280_humidity;BME280_pressure;Samples;Min_cycle;Max_cycle;Signal;HPM_P1;HPM_P2
2023/08/10 00:01:31;;;;;;;3.27;2.87;;;;;;;15.38;79.57;101178.34;5093213;28;20212;-71
2023/08/10 00:03:58;;;;;;;2.47;2.20;;;;;;;15.37;79.81;101173.94;5101888;28;20656;-74
2023/08/10 00:06:25;;;;;;;4.60;2.30;;;;;;;15.33;79.06;101176.00;5090414;28;20278;-74
2023/08/10 00:08:51;;;;;;;2.53;2.13;;;;;;;15.27;78.79;101180.00;5096437;28;20241;-73
2023/08/10 00:11:18;;;;;;;3.87;2.50;;;;;;;15.20;79.10;101181.44;5099866;28;20216;-73
2023/08/10 00:13:44;;;;;;;3.63;2.73;;;;;;;15.11;79.56;101182.09;5100042;28;20208;-74
2023/08/10 00:16:12;;;;;;;4.20;3.07;;;;;;;15.00;79.55;101186.56;5099528;28;20735;-73
2023/08/10 00:18:39;;;;;;;3.30;2.60;;;;;;;14.91;79.64;101182.69;5101767;28;20597;-73
2023/08/10 00:21:05;;;;;;;2.50;2.20;;;;;;;14.85;80.14;101181.34;5096268;28;20232;-73
2023/08/10 00:23:32;;;;;;;3.00;2.20;;;;;;;14.80;80.28;101185.31;5102067;28;20209;-74
2023/08/10 00:25:59;;;;;;;4.27;2.23;;;;;;;14.77;80.27;101185.53;5097014;28;20227;-73
2023/08/10 00:28:25;;;;;;;3.20;2.43;;;;;;;14.74;81.12;101188.44;5099872;28;20203;-73
2023/08/10 00:30:52;;;;;;;4.33;2.47;;;;;;;14.72;81.40;101182.31;5099657;28;20648;-73
2023/08/10 00:33:19;;;;;;;3.63;2.30;;;;;;;14.72;81.62;101185.00;5096430;28;20204;-73
2023/08/10 00:35:46;;;;;;;3.30;2.63;;;;;;;14.73;81.96;101184.03;5101059;28;20211;-73
2023/08/10 00:38:12;;;;;;;5.13;3.07;;;;;;;14.74;82.09;101188.44;5108861;28;20227;-74
2023/08/10 00:40:39;;;;;;;3.50;2.57;;;;;;;14.75;81.94;101191.00;5104473;28;20211;-73
2023/08/10 00:43:05;;;;;;;3.10;2.60;;;;;;;14.68;82.22;101188.91;5102046;28;20211;-72
2023/08/10 00:45:33;;;;;;;5.33;2.60;;;;;;;14.61;82.66;101187.59;5101853;28;20674;-72
2023/08/10 00:47:59;;;;;;;3.73;2.77;;;;;;;14.56;82.94;101188.78;5096287;28;20207;-72
2023/08/10 00:50:28;;;;;;;3.83;2.80;;;;;;;14.55;83.23;101191.56;5098969;28;20205;-71
2023/08/10 00:52:55;;;;;;;3.97;2.50;;;;;;;14.52;83.26;101192.66;5101746;28;20206;-72
2023/08/10 00:55:22;;;;;;;3.13;2.40;;;;;;;14.45;82.87;101199.44;5101399;28;20208;-73
2023/08/10 00:57:48;;;;;;;4.83;2.80;;;;;;;14.41;83.11;101199.75;5100468;28;20227;-72
2023/08/10 01:00:15;;;;;;;3.50;2.73;;;;;;;14.33;83.47;101192.19;5092373;28;20664;-72
2023/08/10 01:02:41;;;;;;;3.57;2.90;;;;;;;14.29;84.17;101195.22;5100940;28;20201;-72
2023/08/10 01:05:11;;;;;;;4.10;3.03;;;;;;;14.25;84.06;101190.06;5099046;28;20210;-73
2023/08/10 01:07:45;;;;;;;2.60;2.40;;;;;;;14.17;84.44;101199.59;5104116;28;20227;-72
2023/08/10 01:10:20;;;;;;;3.13;2.70;;;;;;;14.10;84.79;101196.50;5104378;28;20219;-72
2023/08/10 01:12:50;;;;;;;3.47;2.60;;;;;;;14.07;85.68;101199.41;5099099;28;20646;-72
2023/08/10 01:15:20;;;;;;;2.83;2.17;;;;;;;14.05;85.44;101200.47;5106206;28;20203;-72
2023/08/10 01:17:51;;;;;;;2.80;2.40;;;;;;;14.00;85.03;101202.59;5108241;28;22157;-72
2023/08/10 01:20:20;;;;;;;3.63;2.50;;;;;;;13.97;85.17;101206.34;5107481;28;20383;-70
2023/08/10 01:22:54;;;;;;;2.43;2.03;;;;;;;13.96;85.61;101203.78;5102772;28;20200;-72
2023/08/10 01:25:24;;;;;;;2.73;1.83;;;;;;;13.94;85.31;101208.38;5100210;28;20212;-73
2023/08/10 01:27:50;;;;;;;2.27;1.83;;;;;;;13.88;84.31;101209.66;5104957;28;20228;-72
2023/08/10 01:30:17;;;;;;;4.83;2.30;;;;;;;13.82;84.85;101207.38;5094662;28;20203;-72
2023/08/10 01:32:44;;;;;;;3.93;1.80;;;;;;;13.76;84.97;101205.13;5102790;28;20192;-70
2023/08/10 01:35:11;;;;;;;2.93;2.13;;;;;;;13.72;85.26;101207.16;5097979;28;20203;-73
2023/08/10 01:37:37;;;;;;;2.80;2.10;;;;;;;13.69;84.71;101204.69;5105071;28;20231;-72
2023/08/10 01:40:07;;;;;;;3.33;2.30;;;;;;;13.63;85.44;101217.59;5101953;28;20200;-73
2023/08/10 01:42:35;;;;;;;2.37;2.17;;;;;;;13.59;85.83;101216.97;5099898;28;20215;-72
2023/08/10 01:45:03;;;;;;;3.07;2.23;;;;;;;13.56;86.75;101219.84;5102198;28;20316;-72
2023/08/10 01:47:35;;;;;;;4.43;2.70;;;;;;;13.52;86.74;101215.66;5103276;28;20220;-70
2023/08/10 01:50:05;;;;;;;4.27;2.40;;;;;;;13.44;87.18;101213.47;5104742;28;20203;-72
2023/08/10 01:52:35;;;;;;;2.70;2.33;;;;;;;13.41;87.75;101218.19;5101892;28;20204;-70
2023/08/10 01:55:03;;;;;;;3.03;2.20;;;;;;;13.38;87.70;101223.75;5096964;28;20209;-72
2023/08/10 01:57:30;;;;;;;3.10;2.30;;;;;;;13.33;88.60;101221.38;5104313;28;20238;-71
2023/08/10 01:59:58;;;;;;;2.53;2.23;;;;;;;13.33;88.68;101216.03;5103626;28;20746;-71
2023/08/10 02:02:25;;;;;;;5.57;2.33;;;;;;;13.32;88.80;101218.78;5098139;28;20207;-72
2023/08/10 02:04:51;;;;;;;3.20;2.10;;;;;;;13.31;89.21;101223.28;5099194;28;20196;-72
2023/08/10 02:07:18;;;;;;;2.63;2.17;;;;;;;13.26;88.82;101225.41;5100237;28;20235;-72
2023/08/10 02:09:44;;;;;;;2.10;1.90;;;;;;;13.20;89.36;101223.13;5101613;28;20674;-72
2023/08/10 02:12:11;;;;;;;2.77;2.30;;;;;;;13.15;89.14;101225.25;5095693;28;20591;-72
2023/08/10 02:14:37;;;;;;;1.97;1.80;;;;;;;13.11;89.31;101223.69;5097016;28;20207;-72
2023/08/10 02:17:05;;;;;;;2.10;1.83;;;;;;;13.06;89.30;101223.16;5099630;28;20261;-72
2023/08/10 02:19:31;;;;;;;4.53;1.90;;;;;;;12.99;89.46;101224.50;5098725;28;20220;-72
2023/08/10 02:21:58;;;;;;;3.33;1.73;;;;;;;12.95;89.84;101226.50;5100073;28;20295;-72
2023/08/10 02:24:24;;;;;;;1.20;1.10;;;;;;;12.91;89.79;101230.31;5105959;28;20207;-71
2023/08/10 02:26:51;;;;;;;2.73;1.90;;;;;;;12.88;89.83;101229.69;5102555;28;20255;-72
2023/08/10 02:29:17;;;;;;;3.37;2.00;;;;;;;12.84;90.63;101229.00;5099441;28;20198;-70
2023/08/10 02:31:44;;;;;;;3.37;2.10;;;;;;;12.81;90.68;101235.41;5101835;28;20286;-71
2023/08/10 02:34:12;;;;;;;2.67;2.23;;;;;;;12.79;91.20;101236.44;5103532;28;20804;-71
2023/08/10 02:36:38;;;;;;;3.67;1.90;;;;;;;12.76;91.64;101237.50;5093828;28;20222;-72
2023/08/10 02:39:05;;;;;;;3.03;2.20;;;;;;;12.73;91.46;101232.34;5101390;28;20215;-73
2023/08/10 02:41:32;;;;;;;3.50;2.30;;;;;;;12.71;92.15;101228.94;5101527;28;20207;-71
2023/08/10 02:43:58;;;;;;;3.67;2.10;;;;;;;12.69;92.46;101235.31;5101613;28;20210;-72
2023/08/10 02:46:25;;;;;;;2.80;1.93;;;;;;;12.68;92.97;101234.47;5094466;28;20223;-71
2023/08/10 02:48:53;;;;;;;4.07;2.00;;;;;;;12.68;93.31;101234.47;5100677;28;20207;-73
2023/08/10 02:51:21;;;;;;;2.57;2.17;;;;;;;12.68;93.87;101239.81;5095430;28;20211;-72
2023/08/10 02:53:47;;;;;;;4.50;1.87;;;;;;;12.70;93.98;101243.25;5100229;28;20298;-72
2023/08/10 02:56:14;;;;;;;2.90;1.90;;;;;;;12.70;93.96;101231.69;5098912;28;20230;-72
2023/08/10 02:58:40;;;;;;;3.13;1.87;;;;;;;12.69;93.41;101228.16;5093928;28;20228;-72
2023/08/10 03:01:07;;;;;;;2.87;1.90;;;;;;;12.66;93.11;101227.50;5099446;28;20214;-72
2023/08/10 03:03:34;;;;;;;3.93;1.80;;;;;;;12.64;93.26;101238.28;5096505;28;20227;-74
2023/08/10 03:06:00;;;;;;;3.93;2.33;;;;;;;12.60;92.64;101235.88;5101853;28;20265;-71
2023/08/10 03:08:28;;;;;;;3.27;2.10;;;;;;;12.57;93.28;101246.75;5102982;28;20812;-72
2023/08/10 03:10:55;;;;;;;3.07;2.17;;;;;;;12.55;93.18;101244.19;5103590;28;20210;-71
2023/08/10 03:13:21;;;;;;;2.63;2.33;;;;;;;12.55;93.70;101251.34;5095296;28;20210;-72
2023/08/10 03:15:48;;;;;;;4.83;2.73;;;;;;;12.54;94.35;101247.81;5087983;28;20227;-71
2023/08/10 03:18:14;;;;;;;4.37;2.77;;;;;;;12.55;94.14;101259.34;5099875;28;20224;-71
2023/08/10 03:20:41;;;;;;;5.43;2.50;;;;;;;12.50;94.34;101251.66;5095388;28;20200;-73
2023/08/10 03:23:07;;;;;;;3.97;2.50;;;;;;;12.46;94.54;101253.63;5090976;28;20226;-72
2023/08/10 03:25:35;;;;;;;3.13;2.60;;;;;;;12.46;95.04;101258.13;5089464;28;20285;-71
2023/08/10 03:28:01;;;;;;;5.97;3.10;;;;;;;12.41;95.06;101253.06;5095300;28;20597;-72
2023/08/10 03:30:28;;;;;;;3.83;2.70;;;;;;;12.42;95.06;101256.59;5098852;28;20214;-71
2023/08/10 03:32:54;;;;;;;3.40;3.10;;;;;;;12.39;95.43;101254.09;5097808;28;20442;-70
2023/08/10 03:35:21;;;;;;;3.47;2.53;;;;;;;12.35;95.48;101256.13;5098458;28;20210;-72
2023/08/10 03:37:47;;;;;;;4.37;2.67;;;;;;;12.33;95.66;101244.66;5093614;28;20317;-71
2023/08/10 03:40:14;;;;;;;5.63;3.10;;;;;;;12.27;95.60;101253.03;5094547;28;20219;-71
2023/08/10 03:42:41;;;;;;;3.33;2.40;;;;;;;12.22;95.87;101256.94;5104714;28;20209;-73
2023/08/10 03:45:09;;;;;;;4.27;3.07;;;;;;;12.17;96.24;101254.56;5096161;28;20240;-71
2023/08/10 03:47:35;;;;;;;2.83;2.40;;;;;;;12.15;96.67;101264.47;5098488;28;20240;-71
2023/08/10 03:50:02;;;;;;;3.80;2.47;;;;;;;12.15;96.96;101261.81;5094604;28;20229;-72
2023/08/10 03:52:28;;;;;;;4.23;3.50;;;;;;;12.16;96.58;101266.19;5094112;28;20378;-74
2023/08/10 03:54:55;;;;;;;3.60;2.83;;;;;;;12.15;97.04;101262.66;5098855;28;20207;-72
2023/08/10 03:57:21;;;;;;;4.83;2.40;;;;;;;12.16;97.26;101275.06;5095608;28;20222;-72
2023/08/10 03:59:49;;;;;;;4.00;2.70;;;;;;;12.17;97.08;101270.59;5097109;28;20234;-72
2023/08/10 04:02:16;;;;;;;3.67;2.60;;;;;;;12.18;96.75;101269.63;5091902;28;20233;-71
2023/08/10 04:04:42;;;;;;;2.73;2.47;;;;;;;12.19;96.82;101271.31;5103953;28;20293;-72
2023/08/10 04:07:09;;;;;;;2.47;2.20;;;;;;;12.18;96.99;101275.81;5095103;28;20234;-70
2023/08/10 04:09:35;;;;;;;4.33;2.90;;;;;;;12.20;96.45;101283.72;5108280;28;20200;-72
2023/08/10 04:12:01;;;;;;;3.47;2.33;;;;;;;12.16;95.96;101277.75;5099956;28;20210;-72
2023/08/10 04:14:28;;;;;;;6.50;2.30;;;;;;;12.10;94.98;101279.91;5100706;28;20656;-70
2023/08/10 04:16:57;;;;;;;3.20;2.30;;;;;;;12.02;95.24;101282.16;5101299;28;20223;-72
2023/08/10 04:19:23;;;;;;;2.57;2.37;;;;;;;11.96;95.45;101279.88;5098615;28;20227;-71
2023/08/10 04:21:50;;;;;;;3.87;2.57;;;;;;;11.92;95.59;101278.31;5100605;28;20262;-73
2023/08/10 04:24:16;;;;;;;2.77;2.40;;;;;;;11.89;95.73;101284.69;5104277;28;20206;-73
2023/08/10 04:26:43;;;;;;;3.20;2.90;;;;;;;11.89;95.74;101290.03;5104639;28;20230;-72
2023/08/10 04:29:09;;;;;;;4.17;2.67;;;;;;;11.85;95.63;101287.63;5102987;28;20205;-71
2023/08/10 04:31:36;;;;;;;3.20;2.57;;;;;;;11.82;95.60;101281.53;5094181;28;20287;-71
2023/08/10 04:34:04;;;;;;;2.30;2.10;;;;;;;11.75;95.61;101288.16;5099655;28;20207;-71
2023/08/10 04:36:30;;;;;;;2.50;2.30;;;;;;;11.66;96.08;101286.00;5091113;28;20221;-72
2023/08/10 04:38:57;;;;;;;3.53;2.27;;;;;;;11.62;96.99;101284.47;5094702;28;20228;-71
2023/08/10 04:41:24;;;;;;;2.70;2.30;;;;;;;11.62;97.32;101289.81;5099044;28;20210;-72
2023/08/10 04:43:50;;;;;;;3.23;1.60;;;;;;;11.60;97.77;101285.50;5102851;28;20211;-70
2023/08/10 04:46:17;;;;;;;5.00;1.80;;;;;;;11.54;98.00;101286.72;5095292;28;20333;-71
2023/08/10 04:48:43;;;;;;;5.17;2.20;;;;;;;11.54;98.68;101284.03;5109302;28;20218;-71
2023/08/10 04:51:11;;;;;;;3.07;2.70;;;;;;;11.55;99.34;101279.56;5099596;28;20220;-72
2023/08/10 04:53:37;;;;;;;3.10;2.20;;;;;;;11.57;99.82;101293.69;5093764;28;20206;-72
2023/08/10 04:56:04;;;;;;;3.43;2.47;;;;;;;11.59;99.98;101294.47;5108677;28;20229;-72
2023/08/10 04:58:31;;;;;;;3.67;2.33;;;;;;;11.62;100.00;101303.16;5101862;28;20228;-72
2023/08/10 05:00:58;;;;;;;3.97;2.30;;;;;;;11.64;100.00;101303.94;5104465;28;20677;-72
2023/08/10 05:03:24;;;;;;;3.40;2.80;;;;;;;11.68;100.00;101309.94;5102830;28;20282;-72
2023/08/10 05:05:51;;;;;;;3.40;3.00;;;;;;;11.71;100.00;101313.28;5095632;28;20229;-72
2023/08/10 05:08:21;;;;;;;5.40;3.37;;;;;;;11.76;100.00;101311.25;5091138;28;20206;-72
2023/08/10 05:10:47;;;;;;;5.07;3.07;;;;;;;11.81;100.00;101314.53;5100827;28;20201;-71
2023/08/10 05:13:14;;;;;;;3.60;2.93;;;;;;;11.86;100.00;101316.91;5096041;28;20706;-72
2023/08/10 05:15:40;;;;;;;4.67;3.33;;;;;;;11.91;100.00;101322.84;5099688;28;20214;-74
2023/08/10 05:18:07;;;;;;;4.13;2.97;;;;;;;11.96;100.00;101318.09;5091977;28;20209;-71
2023/08/10 05:20:34;;;;;;;4.37;2.93;;;;;;;12.02;100.00;101319.53;5097067;28;20515;-71
2023/08/10 05:23:00;;;;;;;3.33;3.03;;;;;;;12.07;100.00;101323.66;5094920;28;20234;-71
2023/08/10 05:25:28;;;;;;;6.53;3.27;;;;;;;12.15;100.00;101321.41;5092976;28;20726;-72
2023/08/10 05:27:55;;;;;;;5.40;3.67;;;;;;;12.22;100.00;101326.38;5097906;28;20219;-73
2023/08/10 05:30:21;;;;;;;3.07;2.77;;;;;;;12.26;100.00;101320.75;5094431;28;20553;-73
2023/08/10 05:32:48;;;;;;;4.10;3.07;;;;;;;12.32;100.00;101322.22;5094929;28;20208;-72
2023/08/10 05:35:15;;;;;;;7.23;3.00;;;;;;;12.34;100.00;101318.50;5093518;28;20641;-72
2023/08/10 05:37:41;;;;;;;3.20;2.90;;;;;;;12.36;100.00;101324.59;5096690;28;20261;-70
2023/08/10 05:40:11;;;;;;;3.97;3.27;;;;;;;12.39;100.00;101324.41;5096755;28;20224;-73
2023/08/10 05:42:40;;;;;;;4.20;3.10;;;;;;;12.45;100.00;101320.53;5101734;28;20207;-70
2023/08/10 05:45:08;;;;;;;3.30;2.93;;;;;;;12.56;100.00;101325.19;5104480;28;20207;-71
2023/08/10 05:47:35;;;;;;;4.00;3.10;;;;;;;12.65;100.00;101319.31;5093097;28;20246;-71
2023/08/10 05:50:01;;;;;;;4.23;3.30;;;;;;;12.75;100.00;101323.13;5095949;28;20208;-76
2023/08/10 05:52:28;;;;;;;4.33;3.17;;;;;;;12.88;100.00;101326.78;5097068;28;20204;-73
2023/08/10 05:54:54;;;;;;;3.57;3.03;;;;;;;13.00;100.00;101320.66;5092529;28;20204;-73
2023/08/10 05:57:21;;;;;;;3.70;3.20;;;;;;;13.12;100.00;101319.88;5101861;28;20220;-78
2023/08/10 05:59:49;;;;;;;4.73;3.83;;;;;;;13.23;100.00;101321.06;5096617;28;20224;-78
2023/08/10 06:02:15;;;;;;;4.33;3.30;;;;;;;13.30;100.00;101322.38;5091326;28;20204;-77
2023/08/10 06:04:42;;;;;;;6.10;3.47;;;;;;;13.38;100.00;101328.97;5101102;28;20206;-76
2023/08/10 06:07:08;;;;;;;5.73;2.83;;;;;;;13.45;100.00;101326.72;5099423;28;20244;-76
2023/08/10 06:09:35;;;;;;;5.17;3.97;;;;;;;13.52;100.00;101328.06;5105550;28;20200;-76
2023/08/10 06:12:01;;;;;;;7.53;4.30;;;;;;;13.57;100.00;101330.44;5101699;28;20675;-76
2023/08/10 06:14:28;;;;;;;7.93;4.00;;;;;;;13.63;100.00;101324.66;5097551;28;20208;-76
2023/08/10 06:16:57;;;;;;;6.57;4.03;;;;;;;13.69;100.00;101327.81;5098955;28;20624;-76
2023/08/10 06:19:23;;;;;;;7.03;3.80;;;;;;;13.75;100.00;101332.78;5102394;28;20246;-76
2023/08/10 06:21:50;;;;;;;5.63;4.13;;;;;;;13.85;100.00;101330.34;5107300;28;20211;-76
2023/08/10 06:24:17;;;;;;;4.77;3.90;;;;;;;13.97;100.00;101329.53;5103334;28;20231;-77
2023/08/10 06:26:44;;;;;;;3.77;3.37;;;;;;;14.14;100.00;101331.09;5105623;28;20231;-76
2023/08/10 06:29:11;;;;;;;6.33;4.30;;;;;;;14.33;100.00;101336.88;5103057;28;20280;-76
2023/08/10 06:31:37;;;;;;;6.57;4.00;;;;;;;14.50;100.00;101336.66;5095823;28;20206;-77
2023/08/10 06:34:05;;;;;;;4.37;3.00;;;;;;;14.69;100.00;101332.72;5096148;28;20298;-76
2023/08/10 06:36:33;;;;;;;6.37;3.20;;;;;;;14.83;98.14;101335.28;5107352;28;20220;-76
2023/08/10 06:39:00;;;;;;;3.60;3.07;;;;;;;14.99;96.68;101332.38;5095280;28;20228;-77
2023/08/10 06:41:26;;;;;;;5.07;3.33;;;;;;;15.15;93.98;101336.53;5097081;28;20684;-75
2023/08/10 06:43:52;;;;;;;4.17;2.80;;;;;;;15.32;92.78;101337.13;5102839;28;20708;-76
2023/08/10 06:46:19;;;;;;;7.03;3.17;;;;;;;15.50;93.18;101338.50;5100504;28;20742;-77
2023/08/10 06:48:47;;;;;;;5.17;3.50;;;;;;;15.64;90.81;101341.03;5102056;28;20238;-76
2023/08/10 06:51:14;;;;;;;3.47;2.87;;;;;;;15.76;88.74;101342.00;5098389;28;20296;-76
2023/08/10 06:53:41;;;;;;;7.87;3.43;;;;;;;15.85;87.49;101342.16;5104132;28;20205;-77
2023/08/10 06:56:07;;;;;;;4.37;2.90;;;;;;;15.99;87.34;101354.53;5100691;28;20228;-76
2023/08/10 06:58:36;;;;;;;5.30;3.73;;;;;;;16.13;86.69;101346.28;5101069;28;20206;-78
2023/08/10 07:01:03;;;;;;;6.87;3.07;;;;;;;16.29;86.28;101346.88;5101115;28;20307;-77
2023/08/10 07:03:29;;;;;;;4.43;3.40;;;;;;;16.46;85.79;101355.47;5098299;28;20206;-76
2023/08/10 07:05:56;;;;;;;6.43;3.10;;;;;;;16.62;84.00;101347.94;5101223;28;20293;-76
2023/08/10 07:08:24;;;;;;;3.47;2.77;;;;;;;16.77;83.42;101356.69;5102376;28;20213;-78
2023/08/10 07:10:50;;;;;;;3.20;2.40;;;;;;;16.92;81.72;101358.16;5095796;28;20589;-76
2023/08/10 07:13:17;;;;;;;5.33;2.10;;;;;;;17.02;78.71;101351.91;5100371;28;20209;-75
2023/08/10 07:15:45;;;;;;;6.33;2.67;;;;;;;17.09;77.94;101349.59;5106134;28;20208;-77
2023/08/10 07:18:12;;;;;;;5.43;2.73;;;;;;;17.18;77.11;101348.91;5092706;28;20596;-79
2023/08/10 07:20:40;;;;;;;2.90;1.90;;;;;;;17.32;76.69;101348.63;5097569;28;20259;-79
2023/08/10 07:23:06;;;;;;;6.20;2.60;;;;;;;17.45;75.21;101343.09;5096531;28;20778;-74
2023/08/10 07:25:36;;;;;;;4.07;1.83;;;;;;;17.54;75.00;101339.69;5094606;28;20547;-76
2023/08/10 07:28:03;;;;;;;4.17;2.10;;;;;;;17.70;74.85;101352.78;5057365;22;20833;-81
2023/08/10 07:30:29;;;;;;;3.67;1.57;;;;;;;17.85;73.38;101351.50;5003406;28;20226;-81
2023/08/10 07:32:56;;;;;;;5.33;2.10;;;;;;;17.97;71.59;101347.78;4996970;28;20218;-80
2023/08/10 07:35:23;;;;;;;5.67;1.83;;;;;;;18.04;70.15;101349.00;5000773;28;20294;-81
2023/08/10 07:37:50;;;;;;;3.10;1.77;;;;;;;18.12;69.25;101344.78;5011888;28;20202;-80
2023/08/10 07:40:17;;;;;;;2.93;1.90;;;;;;;18.20;68.90;101355.78;5016235;28;20602;-80
2023/08/10 07:42:44;;;;;;;2.40;1.10;;;;;;;18.32;67.39;101361.00;5010501;28;20199;-83
2023/08/10 07:45:11;;;;;;;2.23;1.30;;;;;;;18.43;64.71;101348.47;5010056;28;20219;-81
2023/08/10 07:47:38;;;;;;;3.70;1.40;;;;;;;18.54;65.17;101360.03;5002740;28;20778;-82
2023/08/10 07:50:06;;;;;;;4.77;1.70;;;;;;;18.67;64.59;101349.94;5032767;28;20711;-81
2023/08/10 07:52:32;;;;;;;3.63;1.50;;;;;;;18.78;62.83;101346.31;5008017;28;20808;-82
2023/08/10 07:54:59;;;;;;;4.80;1.47;;;;;;;18.84;62.90;101342.22;5004922;28;20205;-79
2023/08/10 07:57:25;;;;;;;2.63;1.13;;;;;;;18.93;63.29;101346.81;5020193;28;20206;-82
2023/08/10 07:59:53;;;;;;;1.30;1.13;;;;;;;19.01;62.38;101342.44;5012927;28;20226;-81
2023/08/10 08:02:20;;;;;;;7.13;2.33;;;;;;;19.06;61.74;101345.59;5016373;28;20215;-80
2023/08/10 08:04:46;;;;;;;3.63;1.37;;;;;;;19.05;61.23;101346.59;5017700;28;20222;-82
2023/08/10 08:07:13;;;;;;;1.50;1.30;;;;;;;19.02;60.46;101343.31;5013209;28;20219;-80
2023/08/10 08:09:39;;;;;;;3.57;1.50;;;;;;;18.94;60.55;101345.84;5013504;28;20215;-81
2023/08/10 08:12:06;;;;;;;5.23;1.07;;;;;;;18.88;61.76;101347.22;5029708;28;20210;-80
2023/08/10 08:14:32;;;;;;;3.27;1.27;;;;;;;18.92;60.86;101345.97;5011216;28;20228;-81
2023/08/10 08:17:00;;;;;;;3.07;1.20;;;;;;;19.05;60.52;101345.75;5017771;28;20220;-79
2023/08/10 08:19:28;;;;;;;2.63;0.93;;;;;;;19.15;57.94;101343.94;5038542;28;21760;-82
2023/08/10 08:21:54;;;;;;;3.47;1.20;;;;;;;19.20;58.16;101333.56;5015240;28;20723;-82
2023/08/10 08:24:20;;;;;;;2.47;1.20;;;;;;;19.27;57.19;101339.28;5011361;28;20588;-80
2023/08/10 08:26:47;;;;;;;2.77;1.30;;;;;;;19.40;57.24;101346.16;5009216;28;20210;-81
2023/08/10 08:29:14;;;;;;;5.10;1.10;;;;;;;19.53;55.84;101340.53;5011074;28;20224;-79
2023/08/10 08:31:41;;;;;;;4.53;1.30;;;;;;;19.66;55.28;101338.47;5010423;28;20234;-79
2023/08/10 08:34:09;;;;;;;5.83;1.37;;;;;;;19.82;55.07;101346.03;5012599;28;20211;-82
2023/08/10 08:36:35;;;;;;;3.38;1.20;;;;;;;19.96;53.16;101342.91;5010019;28;20203;-79
2023/08/10 08:39:02;;;;;;;2.78;1.20;;;;;;;19.99;52.95;101350.75;5005201;28;20643;-81
2023/08/10 08:41:34;;;;;;;4.55;1.33;;;;;;;20.08;52.97;101349.03;5009459;28;20233;-83
2023/08/10 08:44:01;;;;;;;2.03;0.97;;;;;;;20.24;52.85;101352.03;5011494;28;20230;-81
2023/08/10 08:46:31;;;;;;;2.90;1.25;;;;;;;20.39;52.29;101344.38;5009888;28;20206;-80
2023/08/10 08:49:00;;;;;;;2.33;1.15;;;;;;;20.46;50.52;101345.50;5012047;28;20209;-80
2023/08/10 08:51:28;;;;;;;3.05;1.05;;;;;;;20.50;49.37;101344.22;5002442;28;20235;-82
2023/08/10 08:53:55;;;;;;;3.25;0.90;;;;;;;20.64;47.88;101334.78;5008122;28;20214;-83
2023/08/10 08:56:21;;;;;;;4.13;1.10;;;;;;;20.78;48.29;101347.88;5008481;28;20582;-82
2023/08/10 08:58:49;;;;;;;3.35;1.05;;;;;;;20.96;47.65;101334.44;5011138;28;20230;-81
2023/08/10 09:01:16;;;;;;;1.92;1.00;;;;;;;21.09;48.18;101340.38;5043768;28;20234;-81
2023/08/10 09:03:43;;;;;;;1.98;1.00;;;;;;;21.31;48.69;101336.47;5005979;28;20670;-81
2023/08/10 09:06:09;;;;;;;4.35;1.30;;;;;;;21.48;48.01;101341.94;5008745;28;20215;-81
2023/08/10 09:08:39;;;;;;;1.58;0.95;;;;;;;21.60;47.20;101339.00;5013398;28;20204;-82
2023/08/10 09:11:06;;;;;;;3.15;1.42;;;;;;;21.70;48.29;101346.06;5040509;28;20248;-82
2023/08/10 09:13:33;;;;;;;3.33;1.52;;;;;;;21.80;47.74;101343.31;5017346;28;20299;-82
2023/08/10 09:16:07;;;;;;;3.92;1.67;;;;;;;21.92;48.13;101341.22;5006529;28;20203;-80
2023/08/10 09:18:35;;;;;;;4.55;1.42;;;;;;;21.99;47.78;101343.16;5021498;28;20213;-80
2023/08/10 09:21:14;;;;;;;2.70;1.38;;;;;;;22.04;47.51;101349.00;5006649;28;20246;-81
2023/08/10 09:23:43;;;;;;;4.30;1.73;;;;;;;21.96;46.79;101337.19;5001338;28;20215;-83
2023/08/10 09:26:11;;;;;;;2.33;1.20;;;;;;;21.84;47.44;101344.72;5005657;28;20327;-81
2023/08/10 09:28:38;;;;;;;3.78;1.35;;;;;;;21.74;47.65;101341.19;5005708;28;20738;-83
2023/08/10 09:31:07;;;;;;;4.05;1.20;;;;;;;21.68;47.59;101348.06;5004724;28;20261;-82
2023/08/10 09:33:35;;;;;;;2.92;1.20;;;;;;;21.70;47.23;101340.63;5016047;28;20218;-82
2023/08/10 09:36:03;;;;;;;3.65;0.98;;;;;;;21.77;45.94;101343.59;5005236;28;20214;-82
2023/08/10 09:38:29;;;;;;;3.95;1.00;;;;;;;21.86;46.42;101348.09;5001531;28;20206;-81
2023/08/10 09:41:13;;;;;;;3.00;1.10;;;;;;;21.98;45.88;101349.59;4998733;28;20230;-81
2023/08/10 09:43:41;;;;;;;4.28;1.30;;;;;;;22.05;45.96;101345.28;4998597;28;20251;-83
2023/08/10 09:46:10;;;;;;;2.70;0.90;;;;;;;22.04;45.91;101348.13;5002777;28;20230;-81
2023/08/10 09:48:37;;;;;;;3.25;1.08;;;;;;;22.01;45.87;101346.63;5009606;28;20210;-82
2023/08/10 09:51:05;;;;;;;3.70;1.20;;;;;;;21.95;45.62;101344.47;5009211;28;20222;-81
2023/08/10 09:53:32;;;;;;;2.33;1.00;;;;;;;21.89;45.35;101345.09;5001830;28;20218;-80
2023/08/10 09:56:00;;;;;;;2.30;1.00;;;;;;;21.87;45.80;101349.81;5021684;28;20210;-80
2023/08/10 09:58:28;;;;;;;2.10;1.17;;;;;;;21.96;46.11;101342.63;5007623;28;20215;-83
2023/08/10 10:00:56;;;;;;;1.95;0.85;;;;;;;22.04;45.56;101349.00;5008354;28;20227;-83
2023/08/10 10:03:28;;;;;;;2.38;1.00;;;;;;;22.07;45.31;101343.25;4999808;28;20210;-79
2023/08/10 10:05:55;;;;;;;2.65;0.80;;;;;;;22.14;43.93;101354.38;5002028;28;20206;-82
2023/08/10 10:08:24;;;;;;;3.67;1.02;;;;;;;22.21;44.51;101349.19;5003037;28;20214;-82
2023/08/10 10:10:51;;;;;;;2.65;0.95;;;;;;;22.22;44.69;101346.28;5006431;28;20223;-81
2023/08/10 10:13:19;;;;;;;1.88;1.10;;;;;;;22.20;44.64;101342.91;5000423;28;20202;-78
2023/08/10 10:15:48;;;;;;;4.40;1.42;;;;;;;22.15;45.32;101346.06;5008037;28;20218;-77
2023/08/10 10:18:15;;;;;;;1.65;0.93;;;;;;;22.10;45.47;101340.25;5006645;28;20203;-76
2023/08/10 10:20:44;;;;;;;3.40;1.15;;;;;;;22.05;45.55;101339.84;5007620;28;20253;-78
2023/08/10 10:23:15;;;;;;;2.03;1.08;;;;;;;22.01;45.28;101337.63;5008972;28;20215;-77
2023/08/10 10:25:55;;;;;;;2.15;0.90;;;;;;;21.98;45.21;101330.63;5004161;28;20286;-78
2023/08/10 10:28:21;;;;;;;3.00;1.10;;;;;;;22.00;44.94;101322.34;5006572;28;20741;-77
2023/08/10 10:30:57;;;;;;;2.00;1.00;;;;;;;22.04;45.54;101330.00;5000939;28;20227;-77
2023/08/10 10:33:25;;;;;;;1.85;1.08;;;;;;;22.08;44.22;101330.56;5009827;28;20217;-76
2023/08/10 10:36:11;;;;;;;1.23;0.90;;;;;;;22.17;43.80;101322.34;5007730;28;20203;-77
2023/08/10 10:38:39;;;;;;;4.38;0.80;;;;;;;22.26;44.38;101325.13;5002743;28;20198;-79
2023/08/10 10:41:31;;;;;;;4.20;1.08;;;;;;;22.31;43.68;101326.38;5011234;28;20291;-77
2023/08/10 10:43:59;;;;;;;5.47;1.25;;;;;;;22.39;42.13;101320.16;5008921;28;20663;-78
2023/08/10 10:46:37;;;;;;;3.85;1.00;;;;;;;22.46;42.34;101323.94;5006768;28;20271;-77
2023/08/10 10:49:11;;;;;;;2.60;1.00;;;;;;;22.56;41.78;101322.00;5006201;28;20199;-79
2023/08/10 10:51:54;;;;;;;2.60;1.08;;;;;;;22.62;41.50;101321.34;5005736;28;20229;-78
2023/08/10 10:54:21;;;;;;;1.90;0.90;;;;;;;22.70;41.18;101313.25;5009638;28;20273;-79
2023/08/10 10:56:47;;;;;;;2.67;0.93;;;;;;;22.84;40.89;101322.72;5003103;28;20289;-78
2023/08/10 10:59:14;;;;;;;1.42;0.90;;;;;;;22.92;41.60;101316.50;5007818;28;20611;-78
2023/08/10 11:01:46;;;;;;;3.08;1.02;;;;;;;22.96;41.24;101324.13;5009060;28;20230;-79
2023/08/10 11:04:13;;;;;;;2.72;0.80;;;;;;;23.00;40.81;101324.66;5008655;28;20210;-79
2023/08/10 11:06:39;;;;;;;2.65;0.82;;;;;;;23.03;40.22;101318.91;5012169;28;20213;-80
2023/08/10 11:09:07;;;;;;;2.88;1.05;;;;;;;23.06;39.53;101313.16;5002408;28;20573;-80
2023/08/10 11:11:35;;;;;;;2.13;0.80;;;;;;;23.12;38.36;101312.50;5008142;28;20325;-80
2023/08/10 11:14:02;;;;;;;2.08;0.82;;;;;;;23.12;39.15;101315.22;5008071;28;20671;-79
2023/08/10 11:16:34;;;;;;;3.92;1.00;;;;;;;23.14;39.47;101305.03;5004279;28;20595;-79
2023/08/10 11:19:09;;;;;;;2.58;0.93;;;;;;;23.20;39.68;101309.84;5013037;28;20208;-79
2023/08/10 11:21:38;;;;;;;2.15;0.90;;;;;;;23.23;39.20;101312.22;5009489;28;20683;-78
2023/08/10 11:24:07;;;;;;;2.03;1.00;;;;;;;23.27;39.28;101300.03;5008651;28;20230;-79
2023/08/10 11:26:34;;;;;;;1.67;1.00;;;;;;;23.32;38.28;101299.50;5001270;28;20677;-79